KSCH

Schenectady County Airport

Schenectady, New York, USA
METAR KSCH 190149Z 30009KT 10SM CLR 23/19 A2980 RMK LAST
Observed Flight Rules
Sep-19 @ 01:49 UTC (9 hours ago) Visual Flight Rules
Wind Visibility Clouds
300° at 9 knots 10 miles
  • Clear skies
Temperatures Readings
Current 23°C / 73°F
Dewpoint 19°C / 66°F
Humidity 78%
Altimeter 29.8" Hg
Pressure 1009 hPa
Elevation 115
METAR KSCH 190149Z 30009KT 10SM CLR 23/19 A2980 RMK LAST
Observed Flight Rules
Sep-19 @ 01:49 UTC
(9 hours ago)
VFR
Wind Visibility
300° at 9 knots 10 miles
Clouds
  • Clear skies
Temperature Dewpoint
23°C / 73°F 19°C / 66°F
Humidity Altimeter Pressure
78% 29.8" Hg 1009 hPa